Tournaments

4,411 Players online now
Active Tournaments: 230
We've got a massive selection of tournaments for you to play in, with all types of poker catered for and a variety of buy-ins to suit your bankroll. You'll also find a great number of tournaments with guaranteed prize pools among our schedule. All tournament details can be found below, with specific details and registration options available when you download and launch the Paddy Power Poker client.
Name Start (GMT) Buy-in Fee Game Rebuy
All In Sat 50€ - 1 Ticket GTD 2022-08-12 5:57 PM €4.55 €0.45 Holdem No
Mini Sweat €4,000 GTD 2022-08-12 6:00 PM €6.83 €1.35 Holdem No
1 Cent Killarney feeder sat 2022-08-12 6:00 PM €0.01 €0.0 Holdem No
€10K GTD Fists of Fury - Rebuy 2022-08-12 6:00 PM €9.1 €0.9 Holdem Yes
The Main Sweat €12,000 GTD 2022-08-12 6:00 PM €22.75 €4.5 Holdem No
Sat 20€ - 5 Tickets GTD 2022-08-12 6:05 PM €1.82 €0.18 Holdem Yes
Big Weekly - €30k GTD - Day 1 2022-08-12 6:05 PM €27.3 €2.7 Holdem No
Sat 5€ - 3 Tickets GTD 2022-08-12 6:10 PM €0.45 €0.05 Holdem Yes
Eliminator Mega Sat - 8 seats 2022-08-12 6:15 PM €1.82 €0.18 Holdem Yes
Sat 50€ - 8 Tickets GTD 2022-08-12 6:15 PM €4.55 €0.45 Holdem Yes
Eliminator Mega Sat - 3 seats 2022-08-12 6:15 PM €2.73 €0.27 Holdem Yes
€750 GTD - PLO Rebuy 2022-08-12 6:15 PM €9.1 €0.9 Omaha Yes
Daily Big Classic - €5,000 GTD 2022-08-12 6:30 PM €182.0 €18.0 Holdem No
1 Cent Killarney feeder sat 2022-08-12 6:30 PM €0.01 €0.0 Holdem No
€2,000 GTD Fists of Fury-Rebuy 2022-08-12 6:30 PM €1.82 €0.18 Holdem Yes
€2,500 GTD - Bounty Hunter 2022-08-12 6:30 PM €4.55 €0.9 Holdem No
€50 GTD PLO Hi-Lo 2022-08-12 6:35 PM €0.91 €0.09 Omaha Hi-Lo No
Eliminator HR Sat - 2x200€ GTD 2022-08-12 6:35 PM €9.1 €0.9 Holdem Yes
€7,500 GTD Fists of Fury-Rebuy 2022-08-12 7:00 PM €45.5 €4.5 Holdem Yes
Friday Night Lights IPT ADDED 2022-08-12 7:00 PM €18.2 €1.8 Holdem No
€200 GTD - Rebuy Turbo 2022-08-12 7:00 PM €0.45 €0.05 Holdem Yes
€3,000 GTD Fists of Fury-Rebuy 2022-08-12 7:00 PM €4.55 €0.45 Holdem Yes
€3 IPT Killarney feeder sat 2022-08-12 7:00 PM €3.0 €0.0 Holdem Yes
Weekender KO|€10k GTD|Day 1 2022-08-12 7:05 PM €4.55 €0.9 Holdem No
Sat 20€ - 5 Tickets GTD 2022-08-12 7:05 PM €1.82 €0.18 Holdem Yes

Quick Links

Social

Get in Touch